Time;durP1;ratioP1;P1;durP2;ratioP2;P2;SDS_P1;SDS_P2;PMS_P1;PMS_P2;Temp;Humidity;BMP_temperature;BMP_pressure;BME280_temperature;BME280_humidity;BME280_pressure;Samples;Min_cycle;Max_cycle;Signal;HPM_P1;HPM_P2
2022/07/26 00:01:54;;;;;;;15.43;11.02;;;;;;;;;;5112498;28;20050;-74
2022/07/26 00:04:58;;;;;;;15.90;10.38;;;;;;;;;;5112938;28;20046;-75
2022/07/26 00:08:12;;;;;;;17.30;11.10;;;;;;;;;;5113239;28;20042;-76
2022/07/26 00:11:17;;;;;;;19.23;10.77;;;;;;;;;;5112720;28;20426;-76
2022/07/26 00:14:21;;;;;;;25.88;11.70;;;;;;;;;;5113033;28;20051;-76
2022/07/26 00:17:26;;;;;;;22.83;10.73;;;;;;;;;;5112935;28;20042;-76
2022/07/26 00:20:30;;;;;;;13.88;9.48;;;;;;;;;;5112696;28;20038;-75
2022/07/26 00:23:35;;;;;;;20.70;11.00;;;;;;;;;;5113392;28;20036;-76
2022/07/26 00:26:39;;;;;;;15.23;11.50;;;;;;;;;;5112353;28;20513;-74
2022/07/26 00:29:44;;;;;;;15.18;10.35;;;;;;;;;;5100450;28;20506;-74
2022/07/26 00:32:48;;;;;;;18.98;10.10;;;;;;;;;;5112359;28;20052;-75
2022/07/26 00:35:52;;;;;;;17.92;10.65;;;;;;;;;;5112614;28;20520;-75
2022/07/26 00:38:57;;;;;;;15.10;10.48;;;;;;;;;;5099947;28;20046;-75
2022/07/26 00:42:01;;;;;;;18.05;10.45;;;;;;;;;;5099846;28;20034;-76
2022/07/26 00:45:07;;;;;;;16.50;10.43;;;;;;;;;;5112505;28;20509;-76
2022/07/26 00:48:11;;;;;;;14.75;10.50;;;;;;;;;;5112244;28;20047;-75
2022/07/26 00:51:15;;;;;;;18.13;11.23;;;;;;;;;;5112205;28;20067;-76
2022/07/26 00:54:20;;;;;;;16.02;11.18;;;;;;;;;;5112284;28;20046;-76
2022/07/26 00:57:24;;;;;;;17.88;11.18;;;;;;;;;;5112265;28;20047;-76
2022/07/26 01:00:29;;;;;;;20.15;11.73;;;;;;;;;;5112205;28;20046;-76
2022/07/26 01:03:33;;;;;;;20.08;11.55;;;;;;;;;;5112139;28;20042;-76
2022/07/26 01:06:37;;;;;;;21.35;11.98;;;;;;;;;;5112106;28;20044;-75
2022/07/26 01:09:42;;;;;;;17.73;12.40;;;;;;;;;;5112357;28;20047;-75
2022/07/26 01:12:46;;;;;;;20.85;12.27;;;;;;;;;;5112044;28;20054;-75
2022/07/26 01:15:51;;;;;;;17.70;11.48;;;;;;;;;;5112206;28;20418;-75
2022/07/26 01:18:55;;;;;;;21.33;12.02;;;;;;;;;;5112436;28;20043;-75
2022/07/26 01:22:00;;;;;;;18.13;10.77;;;;;;;;;;5112057;28;20394;-76
2022/07/26 01:25:05;;;;;;;17.08;10.57;;;;;;;;;;5112377;28;20050;-75
2022/07/26 01:28:09;;;;;;;14.25;10.50;;;;;;;;;;5111908;28;20046;-75
2022/07/26 01:31:14;;;;;;;15.30;10.27;;;;;;;;;;5111843;28;20047;-74
2022/07/26 01:34:18;;;;;;;14.70;10.32;;;;;;;;;;5088069;28;20046;-74
2022/07/26 01:37:22;;;;;;;13.90;10.90;;;;;;;;;;5112559;28;20379;-74
2022/07/26 01:40:26;;;;;;;18.83;9.40;;;;;;;;;;5115800;28;20051;-74
2022/07/26 01:43:31;;;;;;;13.98;10.38;;;;;;;;;;5115512;28;20036;-74
2022/07/26 01:46:35;;;;;;;18.42;10.25;;;;;;;;;;5116128;28;20035;-75
2022/07/26 01:49:39;;;;;;;17.50;10.40;;;;;;;;;;5102943;28;20658;-74
2022/07/26 01:52:44;;;;;;;16.77;11.10;;;;;;;;;;5114978;28;20054;-74
2022/07/26 01:55:48;;;;;;;22.83;12.90;;;;;;;;;;5102554;28;20038;-74
2022/07/26 01:58:52;;;;;;;21.63;14.15;;;;;;;;;;5115165;28;20043;-74
2022/07/26 02:02:00;;;;;;;22.63;14.00;;;;;;;;;;5114885;28;20055;-74
2022/07/26 02:05:04;;;;;;;23.42;14.05;;;;;;;;;;5115625;28;20043;-74
2022/07/26 02:08:09;;;;;;;25.88;14.50;;;;;;;;;;5115411;28;20042;-74
2022/07/26 02:11:15;;;;;;;27.65;14.85;;;;;;;;;;5115225;28;20406;-74
2022/07/26 02:14:19;;;;;;;24.73;13.63;;;;;;;;;;5115017;28;20046;-74
2022/07/26 02:17:23;;;;;;;19.90;15.02;;;;;;;;;;5114969;28;20038;-74
2022/07/26 02:20:30;;;;;;;26.90;14.50;;;;;;;;;;5114819;28;20050;-74
2022/07/26 02:23:34;;;;;;;19.58;13.05;;;;;;;;;;5114791;28;20038;-74
2022/07/26 02:26:38;;;;;;;20.70;13.50;;;;;;;;;;5115051;28;20042;-74
2022/07/26 02:29:43;;;;;;;18.42;12.32;;;;;;;;;;5114840;28;20047;-74
2022/07/26 02:32:48;;;;;;;17.80;12.90;;;;;;;;;;5101838;28;20051;-74
2022/07/26 02:35:52;;;;;;;23.85;13.30;;;;;;;;;;5114826;28;20039;-74
2022/07/26 02:38:56;;;;;;;23.88;13.75;;;;;;;;;;5114692;28;20038;-74
2022/07/26 02:42:01;;;;;;;24.65;14.25;;;;;;;;;;5114287;28;20043;-74
2022/07/26 02:45:06;;;;;;;24.80;14.60;;;;;;;;;;5102082;28;20034;-73
2022/07/26 02:48:10;;;;;;;25.55;14.55;;;;;;;;;;5114378;28;20101;-73
2022/07/26 02:51:14;;;;;;;24.77;15.23;;;;;;;;;;5114079;28;20050;-73
2022/07/26 02:54:19;;;;;;;21.13;12.60;;;;;;;;;;5101975;28;20047;-74
2022/07/26 02:57:23;;;;;;;19.25;14.65;;;;;;;;;;5114306;28;20038;-74
2022/07/26 03:00:28;;;;;;;24.20;14.38;;;;;;;;;;5114121;28;20051;-74
2022/07/26 03:03:32;;;;;;;27.25;15.30;;;;;;;;;;5114120;28;20058;-74
2022/07/26 03:06:36;;;;;;;17.33;15.40;;;;;;;;;;5113990;28;20042;-75
2022/07/26 03:09:41;;;;;;;24.65;15.45;;;;;;;;;;5114200;28;20046;-74
2022/07/26 03:12:46;;;;;;;20.05;15.15;;;;;;;;;;5114068;28;20054;-74
2022/07/26 03:15:50;;;;;;;18.17;14.30;;;;;;;;;;5101356;28;20039;-74
2022/07/26 03:18:54;;;;;;;20.52;14.95;;;;;;;;;;5101466;28;20062;-74
2022/07/26 03:21:59;;;;;;;20.15;14.73;;;;;;;;;;5113590;28;20047;-74
2022/07/26 03:25:03;;;;;;;18.35;15.00;;;;;;;;;;5113587;28;20378;-73
2022/07/26 03:28:08;;;;;;;20.90;15.50;;;;;;;;;;5113678;28;20038;-73
2022/07/26 03:31:12;;;;;;;27.45;16.33;;;;;;;;;;5113972;28;20051;-74
2022/07/26 03:34:17;;;;;;;27.45;16.42;;;;;;;;;;5114039;28;20055;-74
2022/07/26 03:37:22;;;;;;;24.50;15.07;;;;;;;;;;5113615;28;20046;-74
2022/07/26 03:40:27;;;;;;;22.83;16.75;;;;;;;;;;5113837;28;20047;-74
2022/07/26 03:43:32;;;;;;;23.23;16.38;;;;;;;;;;5114443;28;20046;-74
2022/07/26 03:46:37;;;;;;;32.22;15.75;;;;;;;;;;5114143;28;20035;-73
2022/07/26 03:49:41;;;;;;;23.35;15.85;;;;;;;;;;5114225;28;20050;-74
2022/07/26 03:52:46;;;;;;;24.30;16.83;;;;;;;;;;5114154;28;20050;-74
2022/07/26 03:59:14;;;;;;;25.58;16.23;;;;;;;;;;5115267;28;20046;-74
2022/07/26 04:02:18;;;;;;;24.25;17.17;;;;;;;;;;5114775;28;20042;-75
2022/07/26 04:05:23;;;;;;;28.80;17.50;;;;;;;;;;5114531;28;20521;-74
2022/07/26 04:08:27;;;;;;;32.65;18.60;;;;;;;;;;5113884;28;20039;-73
2022/07/26 04:11:33;;;;;;;24.23;16.42;;;;;;;;;;5114048;28;20051;-75
2022/07/26 04:14:41;;;;;;;27.13;15.75;;;;;;;;;;5102183;28;20052;-75
2022/07/26 04:17:47;;;;;;;29.48;17.98;;;;;;;;;;5114510;28;20042;-74
2022/07/26 04:20:51;;;;;;;27.50;18.40;;;;;;;;;;5114236;28;20042;-74
2022/07/26 04:23:57;;;;;;;29.05;17.30;;;;;;;;;;5115176;28;20042;-76
2022/07/26 04:27:02;;;;;;;23.08;16.73;;;;;;;;;;5114693;28;20047;-74
2022/07/26 04:30:12;;;;;;;21.52;15.60;;;;;;;;;;5114803;28;20042;-75
2022/07/26 04:33:16;;;;;;;28.23;17.15;;;;;;;;;;5115716;28;20050;-75
2022/07/26 04:36:21;;;;;;;23.95;15.57;;;;;;;;;;5114492;28;20036;-74
2022/07/26 04:39:25;;;;;;;31.08;17.08;;;;;;;;;;5100764;28;20043;-76
2022/07/26 04:42:29;;;;;;;30.15;15.60;;;;;;;;;;5115316;28;20040;-76
2022/07/26 04:45:34;;;;;;;24.38;16.20;;;;;;;;;;5113084;28;20043;-74
2022/07/26 04:48:39;;;;;;;40.40;15.82;;;;;;;;;;5089945;28;20039;-75
2022/07/26 04:51:45;;;;;;;25.33;13.90;;;;;;;;;;5113313;28;20406;-76
2022/07/26 04:54:50;;;;;;;31.95;14.05;;;;;;;;;;5101685;28;20047;-75
2022/07/26 04:57:54;;;;;;;30.38;14.13;;;;;;;;;;5114864;28;20536;-76
2022/07/26 05:00:59;;;;;;;24.58;12.70;;;;;;;;;;5101815;28;20544;-75
2022/07/26 05:04:03;;;;;;;28.95;13.07;;;;;;;;;;5114015;28;20046;-75
2022/07/26 05:07:08;;;;;;;27.42;13.02;;;;;;;;;;5113573;28;20036;-74
2022/07/26 05:10:13;;;;;;;28.60;13.20;;;;;;;;;;5113974;28;20046;-75
2022/07/26 05:13:21;;;;;;;24.67;12.80;;;;;;;;;;5103544;28;20054;-74
2022/07/26 05:16:25;;;;;;;17.35;12.18;;;;;;;;;;5105464;28;20035;-74
2022/07/26 05:19:29;;;;;;;20.13;13.30;;;;;;;;;;5118045;28;20052;-75
2022/07/26 05:22:34;;;;;;;26.23;12.23;;;;;;;;;;5117185;28;20038;-75
2022/07/26 05:25:40;;;;;;;23.30;13.07;;;;;;;;;;5118577;28;20059;-76
2022/07/26 05:28:44;;;;;;;18.45;12.27;;;;;;;;;;5117707;28;20042;-75
2022/07/26 05:31:49;;;;;;;22.83;12.38;;;;;;;;;;5116683;28;20047;-74
2022/07/26 05:34:54;;;;;;;18.70;12.70;;;;;;;;;;5116639;28;20042;-74
2022/07/26 05:37:59;;;;;;;36.38;13.55;;;;;;;;;;5117413;28;20047;-76
2022/07/26 05:41:04;;;;;;;21.13;13.38;;;;;;;;;;5116013;28;20038;-73
2022/07/26 05:44:08;;;;;;;29.58;12.88;;;;;;;;;;5116321;28;20046;-73
2022/07/26 05:47:13;;;;;;;27.40;12.73;;;;;;;;;;5103166;28;20387;-71
2022/07/26 05:50:18;;;;;;;21.45;13.25;;;;;;;;;;5115888;28;20046;-72
2022/07/26 05:53:22;;;;;;;23.00;13.95;;;;;;;;;;5115535;28;20051;-72
2022/07/26 05:56:27;;;;;;;25.25;14.68;;;;;;;;;;5117069;28;20038;-75
2022/07/26 05:59:32;;;;;;;22.13;12.55;;;;;;;;;;5103732;28;20043;-77
2022/07/26 06:02:36;;;;;;;30.67;13.77;;;;;;;;;;5116333;28;20059;-77
2022/07/26 06:05:41;;;;;;;19.30;12.75;;;;;;;;;;5104173;28;20054;-77
2022/07/26 06:08:45;;;;;;;21.73;12.13;;;;;;;;;;5116044;28;20043;-76
2022/07/26 06:11:49;;;;;;;27.00;13.48;;;;;;;;;;5116713;28;20634;-76
2022/07/26 06:14:54;;;;;;;32.15;13.38;;;;;;;;;;5116353;28;20050;-75
2022/07/26 06:17:58;;;;;;;25.40;13.70;;;;;;;;;;5116455;28;20497;-76
2022/07/26 06:21:02;;;;;;;31.35;13.63;;;;;;;;;;5115553;28;20042;-73
2022/07/26 06:24:10;;;;;;;24.33;13.02;;;;;;;;;;5114396;28;20536;-73
2022/07/26 06:27:14;;;;;;;23.80;13.00;;;;;;;;;;5114942;28;20047;-71
2022/07/26 06:30:18;;;;;;;25.50;11.68;;;;;;;;;;5114289;28;20046;-71
2022/07/26 06:33:22;;;;;;;22.52;10.48;;;;;;;;;;5113598;28;20047;-71
2022/07/26 06:36:27;;;;;;;24.02;11.88;;;;;;;;;;5113514;28;20359;-72
2022/07/26 06:39:31;;;;;;;19.23;11.23;;;;;;;;;;5113373;28;20532;-68
2022/07/26 06:42:36;;;;;;;18.98;11.70;;;;;;;;;;5113946;28;20383;-68
2022/07/26 06:45:40;;;;;;;25.27;11.98;;;;;;;;;;5113618;28;20054;-69
2022/07/26 06:48:44;;;;;;;27.30;16.58;;;;;;;;;;5101872;28;20046;-70
2022/07/26 06:51:49;;;;;;;31.77;16.42;;;;;;;;;;5113272;28;20046;-70
2022/07/26 06:54:56;;;;;;;27.52;17.55;;;;;;;;;;5113896;28;20050;-69
2022/07/26 06:58:01;;;;;;;29.67;14.38;;;;;;;;;;5113389;28;20498;-74
2022/07/26 07:01:05;;;;;;;30.80;14.73;;;;;;;;;;5113031;28;20063;-71
2022/07/26 07:04:10;;;;;;;24.90;15.52;;;;;;;;;;5113245;28;20047;-72
2022/07/26 07:07:14;;;;;;;24.98;14.90;;;;;;;;;;5113853;28;20043;-70
2022/07/26 07:10:18;;;;;;;25.95;14.25;;;;;;;;;;5113709;28;20132;-70
2022/07/26 07:13:23;;;;;;;28.80;12.80;;;;;;;;;;5113524;28;20070;-74
2022/07/26 07:16:27;;;;;;;20.13;11.93;;;;;;;;;;5102482;28;20043;-76
2022/07/26 07:19:34;;;;;;;29.15;13.00;;;;;;;;;;5113903;28;20050;-74
2022/07/26 07:22:39;;;;;;;27.13;11.95;;;;;;;;;;5114222;28;20066;-75
2022/07/26 07:25:44;;;;;;;24.92;12.48;;;;;;;;;;5112863;28;20054;-71
2022/07/26 07:28:48;;;;;;;29.60;11.77;;;;;;;;;;5113464;28;20533;-69
2022/07/26 07:31:53;;;;;;;27.50;11.15;;;;;;;;;;5112870;28;20055;-69
2022/07/26 07:34:57;;;;;;;20.08;10.23;;;;;;;;;;5112315;28;20051;-70
2022/07/26 07:38:02;;;;;;;17.95;10.07;;;;;;;;;;5113094;28;20038;-71
2022/07/26 07:41:06;;;;;;;21.10;9.93;;;;;;;;;;5100574;28;20039;-74
2022/07/26 07:44:11;;;;;;;21.85;10.15;;;;;;;;;;5112285;28;20039;-72
2022/07/26 07:47:16;;;;;;;19.13;10.35;;;;;;;;;;5113806;28;20047;-73
2022/07/26 07:50:20;;;;;;;22.67;10.70;;;;;;;;;;5100515;28;20140;-71
2022/07/26 07:53:25;;;;;;;15.70;8.45;;;;;;;;;;5112739;28;20059;-71
2022/07/26 07:56:29;;;;;;;13.80;8.60;;;;;;;;;;5113644;28;20036;-72
2022/07/26 07:59:34;;;;;;;13.63;6.93;;;;;;;;;;5100654;28;20035;-72
2022/07/26 08:02:38;;;;;;;14.82;7.72;;;;;;;;;;5114016;28;20486;-72
2022/07/26 08:05:42;;;;;;;10.85;7.35;;;;;;;;;;5112095;28;20371;-73
2022/07/26 08:08:47;;;;;;;13.70;7.32;;;;;;;;;;5112785;28;20151;-74
2022/07/26 08:11:51;;;;;;;14.57;7.15;;;;;;;;;;5112309;28;20028;-74
2022/07/26 08:14:57;;;;;;;11.48;7.35;;;;;;;;;;5113818;28;20337;-72
2022/07/26 08:18:02;;;;;;;11.05;6.88;;;;;;;;;;5100219;28;20035;-73
2022/07/26 08:21:06;;;;;;;9.32;6.40;;;;;;;;;;5112211;28;20040;-72
2022/07/26 08:24:10;;;;;;;19.50;6.97;;;;;;;;;;5112253;28;20039;-73
2022/07/26 08:27:15;;;;;;;18.10;7.65;;;;;;;;;;5112361;28;20099;-72
2022/07/26 08:30:20;;;;;;;15.98;7.22;;;;;;;;;;5111881;28;20048;-73
2022/07/26 08:33:24;;;;;;;16.95;7.32;;;;;;;;;;5111623;28;20048;-72
2022/07/26 08:36:28;;;;;;;14.85;7.70;;;;;;;;;;5112208;28;20043;-72
2022/07/26 08:39:33;;;;;;;12.95;6.50;;;;;;;;;;5112426;28;20059;-72
2022/07/26 08:42:37;;;;;;;16.45;7.57;;;;;;;;;;5112383;28;20036;-70
2022/07/26 08:45:44;;;;;;;13.02;7.82;;;;;;;;;;5111416;28;20047;-72
2022/07/26 08:48:48;;;;;;;13.95;7.47;;;;;;;;;;5112119;28;20044;-73
2022/07/26 08:51:53;;;;;;;11.48;6.93;;;;;;;;;;5111462;28;20527;-73
2022/07/26 08:54:57;;;;;;;17.38;8.23;;;;;;;;;;5111853;28;20482;-73
2022/07/26 08:58:03;;;;;;;17.05;9.13;;;;;;;;;;5112002;28;20040;-70
2022/07/26 09:01:12;;;;;;;12.90;7.88;;;;;;;;;;5111634;28;20052;-72
2022/07/26 09:04:17;;;;;;;15.98;7.97;;;;;;;;;;5098735;28;20032;-70
2022/07/26 09:07:22;;;;;;;15.43;8.77;;;;;;;;;;5112276;28;20032;-70
2022/07/26 09:10:26;;;;;;;19.90;8.52;;;;;;;;;;5111175;28;20094;-71
2022/07/26 09:13:54;;;;;;;18.13;8.75;;;;;;;;;;5111090;28;20043;-72
2022/07/26 09:16:59;;;;;;;17.85;8.68;;;;;;;;;;5111751;28;20460;-71
2022/07/26 09:20:08;;;;;;;16.42;8.45;;;;;;;;;;5112520;28;20036;-73
2022/07/26 09:23:15;;;;;;;14.50;8.05;;;;;;;;;;5112927;28;20031;-71
2022/07/26 09:26:23;;;;;;;23.52;10.45;;;;;;;;;;5112686;28;20476;-71
2022/07/26 09:29:28;;;;;;;15.60;7.57;;;;;;;;;;5110893;28;20039;-72
2022/07/26 09:32:32;;;;;;;13.00;7.38;;;;;;;;;;5110601;28;20040;-71
2022/07/26 09:35:37;;;;;;;19.38;7.57;;;;;;;;;;5110619;28;20483;-69
2022/07/26 09:38:52;;;;;;;18.63;7.68;;;;;;;;;;5111946;28;20044;-73
2022/07/26 09:42:06;;;;;;;16.55;8.60;;;;;;;;;;5111563;28;20039;-74
2022/07/26 09:45:16;;;;;;;12.90;7.50;;;;;;;;;;5111116;28;20498;-72
2022/07/26 09:48:28;;;;;;;10.68;7.28;;;;;;;;;;5111771;28;20151;-71
2022/07/26 09:51:44;;;;;;;19.65;8.07;;;;;;;;;;5113652;28;20471;-71
2022/07/26 09:54:48;;;;;;;20.20;6.50;;;;;;;;;;5113738;28;20371;-72
2022/07/26 09:57:53;;;;;;;15.68;8.25;;;;;;;;;;5112899;28;20039;-72
2022/07/26 10:00:57;;;;;;;11.38;6.90;;;;;;;;;;5102516;28;20039;-70
2022/07/26 10:04:02;;;;;;;17.98;7.00;;;;;;;;;;5114810;28;20043;-73
2022/07/26 10:07:09;;;;;;;16.77;7.38;;;;;;;;;;5114503;28;20490;-70
2022/07/26 10:10:17;;;;;;;13.75;6.93;;;;;;;;;;5114491;28;20035;-71
2022/07/26 10:13:22;;;;;;;17.95;8.18;;;;;;;;;;5114434;28;20043;-69
2022/07/26 10:16:31;;;;;;;12.00;7.18;;;;;;;;;;5114550;28;20032;-72
2022/07/26 10:19:40;;;;;;;13.57;6.95;;;;;;;;;;5102136;28;20368;-69
2022/07/26 10:22:46;;;;;;;9.85;6.68;;;;;;;;;;5114458;28;20036;-73
2022/07/26 10:25:50;;;;;;;14.75;7.47;;;;;;;;;;5102830;28;20043;-71
2022/07/26 10:28:54;;;;;;;12.60;6.28;;;;;;;;;;5116209;28;20035;-70
2022/07/26 10:32:02;;;;;;;16.27;7.07;;;;;;;;;;5113993;28;20502;-71
2022/07/26 10:35:25;;;;;;;12.52;6.72;;;;;;;;;;5102102;28;20048;-69
2022/07/26 10:38:29;;;;;;;12.50;7.05;;;;;;;;;;5114442;28;20197;-70
2022/07/26 10:41:38;;;;;;;20.05;7.10;;;;;;;;;;5114711;28;20039;-71
2022/07/26 10:44:46;;;;;;;13.15;6.85;;;;;;;;;;5102140;28;20040;-70
2022/07/26 10:48:10;;;;;;;13.13;7.25;;;;;;;;;;5114262;28;20032;-72
2022/07/26 10:51:28;;;;;;;9.40;6.65;;;;;;;;;;5114619;28;20044;-72
2022/07/26 10:54:33;;;;;;;17.58;6.88;;;;;;;;;;5114915;28;20044;-73
2022/07/26 10:57:39;;;;;;;17.15;6.97;;;;;;;;;;5114640;28;20040;-73
2022/07/26 11:00:54;;;;;;;14.15;6.43;;;;;;;;;;5090022;28;20043;-74
2022/07/26 11:03:58;;;;;;;7.63;6.75;;;;;;;;;;5114281;28;20666;-72
2022/07/26 11:07:02;;;;;;;12.32;6.80;;;;;;;;;;5114152;28;20376;-74
2022/07/26 11:10:07;;;;;;;13.77;6.63;;;;;;;;;;5114593;28;20035;-74
2022/07/26 11:13:19;;;;;;;13.85;6.88;;;;;;;;;;5102363;28;20039;-73
2022/07/26 11:16:23;;;;;;;16.38;6.97;;;;;;;;;;5114191;28;20040;-73
2022/07/26 11:19:28;;;;;;;15.38;6.80;;;;;;;;;;5101684;28;20127;-74
2022/07/26 11:22:34;;;;;;;11.32;6.85;;;;;;;;;;5101630;28;20036;-73
2022/07/26 11:25:40;;;;;;;16.25;7.10;;;;;;;;;;5114047;28;20036;-74
2022/07/26 11:28:49;;;;;;;11.65;6.78;;;;;;;;;;5114272;28;20036;-73
2022/07/26 11:31:54;;;;;;;12.50;6.95;;;;;;;;;;5101483;28;20039;-74
2022/07/26 11:34:59;;;;;;;11.32;6.70;;;;;;;;;;5101001;28;20372;-75
2022/07/26 11:38:07;;;;;;;10.27;7.50;;;;;;;;;;5113853;28;20376;-74
2022/07/26 11:41:11;;;;;;;17.67;7.60;;;;;;;;;;5113689;28;20368;-73
2022/07/26 11:44:16;;;;;;;9.20;6.05;;;;;;;;;;5113474;28;20032;-72
2022/07/26 11:47:22;;;;;;;14.25;7.47;;;;;;;;;;5101014;28;20474;-73
2022/07/26 11:50:27;;;;;;;17.00;6.65;;;;;;;;;;5113102;28;20039;-73
2022/07/26 11:53:35;;;;;;;15.27;6.70;;;;;;;;;;5113697;28;20047;-72
2022/07/26 11:56:39;;;;;;;10.93;6.45;;;;;;;;;;5112702;28;20040;-72
2022/07/26 11:59:45;;;;;;;12.43;7.05;;;;;;;;;;5113356;28;20035;-71
2022/07/26 12:02:50;;;;;;;20.83;6.72;;;;;;;;;;5112181;28;20047;-72
2022/07/26 12:06:01;;;;;;;9.18;5.93;;;;;;;;;;5112740;28;20035;-73
2022/07/26 12:09:06;;;;;;;14.10;6.25;;;;;;;;;;5112553;28;20043;-74
2022/07/26 12:12:19;;;;;;;14.82;6.07;;;;;;;;;;5113156;28;20039;-73
2022/07/26 12:15:24;;;;;;;9.25;6.00;;;;;;;;;;5112556;28;20039;-71
2022/07/26 12:18:29;;;;;;;8.85;5.57;;;;;;;;;;5112229;28;20040;-71
2022/07/26 12:21:44;;;;;;;9.63;5.93;;;;;;;;;;5099597;28;20372;-71
2022/07/26 12:24:55;;;;;;;7.35;5.70;;;;;;;;;;5112568;28;20498;-69
2022/07/26 12:28:00;;;;;;;14.55;6.40;;;;;;;;;;5112838;28;20502;-71
2022/07/26 12:31:04;;;;;;;9.40;5.85;;;;;;;;;;5100301;28;20027;-69
2022/07/26 12:34:09;;;;;;;12.73;5.63;;;;;;;;;;5111798;28;20051;-73
2022/07/26 12:37:15;;;;;;;12.70;5.90;;;;;;;;;;5111983;28;20059;-71
2022/07/26 12:40:22;;;;;;;8.25;5.70;;;;;;;;;;5111653;28;20380;-72
2022/07/26 12:43:27;;;;;;;15.20;6.10;;;;;;;;;;5113403;28;20040;-73
2022/07/26 12:46:35;;;;;;;9.35;5.25;;;;;;;;;;5112407;28;20419;-74
2022/07/26 12:49:41;;;;;;;18.88;6.28;;;;;;;;;;5112061;28;20023;-76
2022/07/26 12:52:46;;;;;;;11.00;5.63;;;;;;;;;;5112241;28;20027;-76
2022/07/26 12:55:50;;;;;;;12.25;5.97;;;;;;;;;;5112535;28;20047;-76
2022/07/26 12:58:59;;;;;;;14.25;6.70;;;;;;;;;;5112521;28;20482;-76
2022/07/26 13:02:04;;;;;;;16.17;6.45;;;;;;;;;;5112408;28;20048;-76
2022/07/26 13:05:09;;;;;;;13.80;5.97;;;;;;;;;;5112665;28;20035;-76
2022/07/26 13:08:13;;;;;;;15.93;6.60;;;;;;;;;;5112492;28;20036;-76
2022/07/26 13:11:18;;;;;;;13.20;5.72;;;;;;;;;;5099277;28;20027;-76
2022/07/26 13:14:22;;;;;;;11.70;6.00;;;;;;;;;;5112329;28;20186;-75
2022/07/26 13:17:27;;;;;;;10.75;6.47;;;;;;;;;;5112679;28;20495;-76
2022/07/26 13:20:31;;;;;;;13.50;6.10;;;;;;;;;;5112088;28;20039;-76
2022/07/26 13:23:35;;;;;;;9.48;6.50;;;;;;;;;;5112771;28;20040;-75
2022/07/26 13:26:40;;;;;;;12.82;6.28;;;;;;;;;;5112904;28;20490;-76
2022/07/26 13:29:44;;;;;;;9.52;5.85;;;;;;;;;;5112068;28;20376;-76
2022/07/26 13:32:48;;;;;;;12.32;6.80;;;;;;;;;;5099724;28;20036;-75
2022/07/26 13:35:53;;;;;;;14.70;6.60;;;;;;;;;;5116439;28;20044;-75
2022/07/26 13:38:57;;;;;;;9.30;5.38;;;;;;;;;;5116130;28;20043;-76
2022/07/26 13:42:02;;;;;;;14.52;6.85;;;;;;;;;;5115733;28;20474;-75
2022/07/26 13:45:07;;;;;;;14.65;6.30;;;;;;;;;;5115707;28;20043;-76
2022/07/26 13:48:11;;;;;;;7.63;5.45;;;;;;;;;;5115908;28;20039;-75
2022/07/26 13:51:16;;;;;;;10.15;5.32;;;;;;;;;;5115565;28;20035;-76
2022/07/26 13:54:22;;;;;;;10.40;6.22;;;;;;;;;;5115700;28;20052;-75
2022/07/26 13:57:26;;;;;;;13.30;6.60;;;;;;;;;;5115331;28;20363;-74
2022/07/26 14:00:30;;;;;;;15.05;8.18;;;;;;;;;;5115072;28;20039;-73
2022/07/26 14:03:35;;;;;;;17.70;6.30;;;;;;;;;;5115248;28;20039;-72
2022/07/26 14:06:39;;;;;;;10.25;5.60;;;;;;;;;;5115479;28;20044;-75
2022/07/26 14:09:44;;;;;;;11.43;5.82;;;;;;;;;;5114554;28;20039;-73
2022/07/26 14:12:48;;;;;;;15.73;6.07;;;;;;;;;;5115035;28;20036;-74
2022/07/26 14:15:52;;;;;;;10.73;5.80;;;;;;;;;;5114945;28;20039;-74
2022/07/26 14:18:57;;;;;;;11.98;5.95;;;;;;;;;;5114553;28;20028;-74
2022/07/26 14:22:02;;;;;;;12.98;5.53;;;;;;;;;;5114644;28;20375;-72
2022/07/26 14:25:07;;;;;;;12.48;5.95;;;;;;;;;;5102836;28;20031;-73
2022/07/26 14:28:11;;;;;;;9.00;5.40;;;;;;;;;;5114254;28;20036;-72
2022/07/26 14:31:16;;;;;;;13.48;5.53;;;;;;;;;;5114367;28;20044;-72
2022/07/26 14:34:20;;;;;;;10.90;5.50;;;;;;;;;;5114420;28;20490;-75
2022/07/26 14:37:24;;;;;;;14.02;5.78;;;;;;;;;;5114146;28;20412;-72
2022/07/26 14:40:29;;;;;;;10.00;5.38;;;;;;;;;;5114359;28;20039;-73
2022/07/26 14:43:33;;;;;;;9.63;5.00;;;;;;;;;;5101058;28;20036;-72
2022/07/26 14:46:37;;;;;;;10.48;5.50;;;;;;;;;;5100944;28;20027;-73
2022/07/26 14:49:41;;;;;;;17.80;5.30;;;;;;;;;;5113113;28;20039;-72
2022/07/26 14:52:47;;;;;;;92.35;15.95;;;;;;;;;;5113807;28;20039;-73
2022/07/26 14:55:55;;;;;;;30.30;8.60;;;;;;;;;;5101756;28;20042;-73
2022/07/26 14:59:00;;;;;;;23.88;6.13;;;;;;;;;;5089242;28;20475;-74
2022/07/26 15:02:06;;;;;;;11.98;6.18;;;;;;;;;;5113205;28;20397;-70
2022/07/26 15:05:15;;;;;;;11.40;5.20;;;;;;;;;;5113914;28;20590;-73
2022/07/26 15:08:19;;;;;;;7.38;4.50;;;;;;;;;;5113470;28;20035;-73
2022/07/26 15:11:24;;;;;;;12.35;5.03;;;;;;;;;;5113528;28;20032;-72
2022/07/26 15:14:28;;;;;;;11.43;5.53;;;;;;;;;;5113621;28;20044;-73
2022/07/26 15:17:32;;;;;;;16.38;5.55;;;;;;;;;;5114167;28;20039;-70
2022/07/26 15:20:40;;;;;;;10.70;5.10;;;;;;;;;;5113550;28;20039;-68
2022/07/26 15:23:44;;;;;;;13.57;5.15;;;;;;;;;;5113367;28;20031;-72
2022/07/26 15:26:49;;;;;;;8.68;4.60;;;;;;;;;;5100797;28;20039;-70
2022/07/26 15:29:53;;;;;;;8.98;5.20;;;;;;;;;;5100468;28;20035;-71
2022/07/26 15:32:57;;;;;;;11.00;5.13;;;;;;;;;;5112629;28;20044;-71
2022/07/26 15:36:04;;;;;;;10.52;4.80;;;;;;;;;;5113037;28;20044;-72
2022/07/26 15:39:09;;;;;;;9.27;4.70;;;;;;;;;;5113050;28;20028;-72
2022/07/26 15:42:14;;;;;;;8.05;5.22;;;;;;;;;;5100428;28;20380;-71
2022/07/26 15:45:22;;;;;;;13.35;4.82;;;;;;;;;;5113383;28;20039;-72
2022/07/26 15:48:26;;;;;;;7.93;4.65;;;;;;;;;;5112974;28;20040;-73
2022/07/26 15:51:31;;;;;;;12.15;4.93;;;;;;;;;;5100168;28;20032;-71
2022/07/26 15:54:35;;;;;;;9.13;3.90;;;;;;;;;;5112205;28;20043;-73
2022/07/26 15:57:40;;;;;;;12.60;4.65;;;;;;;;;;5112088;28;20032;-74
2022/07/26 16:00:44;;;;;;;10.05;4.70;;;;;;;;;;5100272;28;20036;-73
2022/07/26 16:03:49;;;;;;;12.05;4.85;;;;;;;;;;5112665;28;20048;-74
2022/07/26 16:06:54;;;;;;;7.88;4.13;;;;;;;;;;5113039;28;20035;-74
2022/07/26 16:09:58;;;;;;;11.52;4.82;;;;;;;;;;5112297;28;20039;-72
2022/07/26 16:13:03;;;;;;;8.82;4.57;;;;;;;;;;5112130;28;20027;-71
2022/07/26 16:16:08;;;;;;;9.30;4.88;;;;;;;;;;5112145;28;20039;-72
2022/07/26 16:19:13;;;;;;;10.32;5.10;;;;;;;;;;5112029;28;20028;-71
2022/07/26 16:22:18;;;;;;;7.50;4.40;;;;;;;;;;5112066;28;20040;-69
2022/07/26 16:25:22;;;;;;;8.80;4.05;;;;;;;;;;5112364;28;20036;-72
2022/07/26 16:28:26;;;;;;;7.28;4.57;;;;;;;;;;5111852;28;20047;-72
2022/07/26 16:31:31;;;;;;;10.43;5.13;;;;;;;;;;5111942;28;20035;-71
2022/07/26 16:34:35;;;;;;;8.18;4.68;;;;;;;;;;5098879;28;20388;-70
2022/07/26 16:37:41;;;;;;;6.40;4.32;;;;;;;;;;5111704;28;20044;-71
2022/07/26 16:40:46;;;;;;;15.57;4.97;;;;;;;;;;5087577;28;20035;-72
2022/07/26 16:43:50;;;;;;;11.95;4.88;;;;;;;;;;5111781;28;20040;-72
2022/07/26 16:46:55;;;;;;;18.63;5.75;;;;;;;;;;5099924;28;20396;-72
2022/07/26 16:50:00;;;;;;;11.50;5.68;;;;;;;;;;5111511;28;20055;-72
2022/07/26 16:53:04;;;;;;;11.25;4.78;;;;;;;;;;5111312;28;20044;-72
2022/07/26 16:56:09;;;;;;;11.82;5.07;;;;;;;;;;5112101;28;20051;-75
2022/07/26 16:59:13;;;;;;;8.73;4.53;;;;;;;;;;5098937;28;20035;-75
2022/07/26 17:02:17;;;;;;;8.00;4.55;;;;;;;;;;5111041;28;20044;-71
2022/07/26 17:05:21;;;;;;;10.70;4.80;;;;;;;;;;5111414;28;20491;-72
2022/07/26 17:08:26;;;;;;;8.35;5.00;;;;;;;;;;5114130;28;20036;-71
2022/07/26 17:11:30;;;;;;;8.63;4.93;;;;;;;;;;5116976;28;20039;-73
2022/07/26 17:14:35;;;;;;;13.88;5.13;;;;;;;;;;5116054;28;20043;-74
2022/07/26 17:17:39;;;;;;;16.55;5.25;;;;;;;;;;5115266;28;20035;-76
2022/07/26 17:20:44;;;;;;;14.05;5.15;;;;;;;;;;5115021;28;20036;-75
2022/07/26 17:23:50;;;;;;;11.88;5.10;;;;;;;;;;5102896;28;20482;-74
2022/07/26 17:26:56;;;;;;;15.82;5.80;;;;;;;;;;5115978;28;20028;-73
2022/07/26 17:30:00;;;;;;;11.77;5.25;;;;;;;;;;5115572;28;20047;-75
2022/07/26 17:33:05;;;;;;;12.30;5.15;;;;;;;;;;5102029;28;20031;-73
2022/07/26 17:36:21;;;;;;;13.38;5.05;;;;;;;;;;5103809;28;20040;-74
2022/07/26 17:39:26;;;;;;;9.88;5.53;;;;;;;;;;5116023;28;20028;-74
2022/07/26 17:42:30;;;;;;;7.05;5.35;;;;;;;;;;5102706;28;20039;-74
2022/07/26 17:45:37;;;;;;;15.20;5.78;;;;;;;;;;5118786;28;20032;-74
2022/07/26 17:48:44;;;;;;;14.35;5.65;;;;;;;;;;5116208;28;20048;-74
2022/07/26 17:51:49;;;;;;;10.88;5.72;;;;;;;;;;5115741;28;20028;-74
2022/07/26 17:54:56;;;;;;;14.98;6.25;;;;;;;;;;5115399;28;20039;-73
2022/07/26 17:58:01;;;;;;;10.13;5.13;;;;;;;;;;5115882;28;20032;-74
2022/07/26 18:01:05;;;;;;;11.93;5.30;;;;;;;;;;5115136;28;20051;-74
2022/07/26 18:04:10;;;;;;;11.38;5.50;;;;;;;;;;5103227;28;20384;-74
2022/07/26 18:07:15;;;;;;;10.60;5.63;;;;;;;;;;5115189;28;20048;-74
2022/07/26 18:10:19;;;;;;;11.20;5.97;;;;;;;;;;5115514;28;20035;-74
2022/07/26 18:13:23;;;;;;;14.88;5.45;;;;;;;;;;5115116;28;20036;-74